createdAt,value
2018-12-20T00:01:29.950Z,15.50
2018-12-20T00:04:33.587Z,16.03
2018-12-20T00:07:37.232Z,16.17
2018-12-20T00:10:40.817Z,16.63
2018-12-20T00:13:44.584Z,17.00
2018-12-20T00:16:52.329Z,16.97
2018-12-20T00:19:56.001Z,17.20
2018-12-20T00:22:59.590Z,17.30
2018-12-20T00:26:03.343Z,16.42
2018-12-20T00:29:07.050Z,17.52
2018-12-20T00:32:10.654Z,17.63
2018-12-20T00:35:14.295Z,17.27
2018-12-20T00:38:17.777Z,18.00
2018-12-20T00:41:21.504Z,16.97
2018-12-20T00:44:25.201Z,18.27
2018-12-20T00:47:28.738Z,18.10
2018-12-20T00:50:32.483Z,17.30
2018-12-20T00:53:36.158Z,18.97
2018-12-20T00:56:39.803Z,18.37
2018-12-20T00:59:43.500Z,17.77
2018-12-20T01:02:47.364Z,18.63
2018-12-20T01:05:53.328Z,18.80
2018-12-20T01:08:56.864Z,18.17
2018-12-20T01:12:00.466Z,18.20
2018-12-20T01:15:04.835Z,17.60
2018-12-20T01:18:08.423Z,17.27
2018-12-20T01:21:12.043Z,18.00
2018-12-20T01:24:15.613Z,18.37
2018-12-20T01:27:19.310Z,17.70
2018-12-20T01:30:23.030Z,18.37
2018-12-20T01:33:26.825Z,18.17
2018-12-20T01:36:30.322Z,18.30
2018-12-20T01:39:34.037Z,17.70
2018-12-20T01:42:37.870Z,18.10
2018-12-20T01:45:41.914Z,18.70
2018-12-20T01:48:45.389Z,19.30
2018-12-20T01:51:49.195Z,18.23
2018-12-20T01:54:53.155Z,18.93
2018-12-20T01:57:56.919Z,17.67
2018-12-20T02:01:00.499Z,17.05
2018-12-20T02:04:04.073Z,17.63
2018-12-20T02:07:07.626Z,18.10
2018-12-20T02:10:11.418Z,17.92
2018-12-20T02:13:15.049Z,17.87
2018-12-20T02:16:18.759Z,17.83
2018-12-20T02:19:22.349Z,18.33
2018-12-20T02:22:26.078Z,17.13
2018-12-20T02:25:29.679Z,18.43
2018-12-20T02:28:33.477Z,17.37
2018-12-20T02:31:37.089Z,18.30
2018-12-20T02:34:40.725Z,19.12
2018-12-20T02:37:44.524Z,18.00
2018-12-20T02:40:48.132Z,17.70
2018-12-20T02:43:51.743Z,17.50
2018-12-20T02:46:55.393Z,17.37
2018-12-20T02:49:59.060Z,18.62
2018-12-20T02:53:02.719Z,18.27
2018-12-20T02:56:06.155Z,17.10
2018-12-20T02:59:10.267Z,17.23
2018-12-20T03:02:14.049Z,18.20
2018-12-20T03:05:17.719Z,18.55
2018-12-20T03:08:21.400Z,17.93
2018-12-20T03:11:25.077Z,18.07
2018-12-20T03:14:28.964Z,19.60
2018-12-20T03:17:32.718Z,17.00
2018-12-20T03:20:36.545Z,18.60
2018-12-20T03:23:40.172Z,18.87
2018-12-20T03:26:43.762Z,19.05
2018-12-20T03:29:47.431Z,18.67
2018-12-20T03:32:50.993Z,19.27
2018-12-20T03:35:54.486Z,18.70
2018-12-20T03:38:58.712Z,20.46
2018-12-20T03:42:02.236Z,19.77
2018-12-20T03:45:06.139Z,18.98
2018-12-20T03:48:09.694Z,19.67
2018-12-20T03:51:13.494Z,19.27
2018-12-20T03:54:17.379Z,18.52
2018-12-20T03:57:21.040Z,19.70
2018-12-20T04:00:24.946Z,18.98
2018-12-20T04:03:28.781Z,19.00
2018-12-20T04:06:32.346Z,20.23
2018-12-20T04:09:35.826Z,18.47
2018-12-20T04:12:39.426Z,18.50
2018-12-20T04:15:43.124Z,18.40
2018-12-20T04:18:46.771Z,18.60
2018-12-20T04:21:50.363Z,18.20
2018-12-20T04:24:53.925Z,18.77
2018-12-20T04:27:57.574Z,18.33
2018-12-20T04:31:01.389Z,18.95
2018-12-20T04:34:05.080Z,18.23
2018-12-20T04:37:08.710Z,16.80
2018-12-20T04:40:12.336Z,19.42
2018-12-20T04:43:16.097Z,18.37
2018-12-20T04:46:19.686Z,19.13
2018-12-20T04:49:23.241Z,20.53
2018-12-20T04:52:26.941Z,18.67
2018-12-20T04:55:30.584Z,21.10
2018-12-20T04:58:34.092Z,19.37
2018-12-20T05:01:37.550Z,19.93
2018-12-20T05:04:41.207Z,18.40
2018-12-20T05:07:45.070Z,20.33
2018-12-20T05:10:48.758Z,19.30
2018-12-20T05:13:53.439Z,18.30
2018-12-20T05:16:57.186Z,18.60
2018-12-20T05:20:00.848Z,20.10
2018-12-20T05:23:04.822Z,21.17
2018-12-20T05:26:08.548Z,19.67
2018-12-20T05:29:12.114Z,19.97
2018-12-20T05:32:15.563Z,21.20
2018-12-20T05:35:19.227Z,19.47
2018-12-20T05:38:22.879Z,19.00
2018-12-20T05:41:26.571Z,18.20
2018-12-20T05:44:30.279Z,19.67
2018-12-20T05:47:34.213Z,18.80
2018-12-20T05:50:37.820Z,19.70
2018-12-20T05:53:41.374Z,19.10
2018-12-20T05:56:45.364Z,19.47
2018-12-20T05:59:49.233Z,17.43
2018-12-20T06:02:53.436Z,18.48
2018-12-20T06:05:57.158Z,19.13
2018-12-20T06:09:00.880Z,17.80
2018-12-20T06:12:04.732Z,17.07
2018-12-20T06:15:08.613Z,17.90
2018-12-20T06:18:12.147Z,17.70
2018-12-20T06:21:16.727Z,18.02
2018-12-20T06:24:20.342Z,18.70
2018-12-20T06:27:23.811Z,17.30
2018-12-20T06:30:27.321Z,18.10
2018-12-20T06:33:31.006Z,18.40
2018-12-20T06:36:34.493Z,19.37
2018-12-20T06:39:37.911Z,17.48
2018-12-20T06:42:41.415Z,19.60
2018-12-20T06:45:44.946Z,17.10
2018-12-20T06:48:48.438Z,19.80
2018-12-20T06:51:52.025Z,17.37
2018-12-20T06:54:55.538Z,18.30
2018-12-20T06:57:59.144Z,18.85
2018-12-20T07:01:02.676Z,19.40
2018-12-20T07:04:06.207Z,18.73
2018-12-20T07:07:09.706Z,17.80
2018-12-20T07:10:13.346Z,18.00
2018-12-20T07:13:16.900Z,18.42
2018-12-20T07:16:20.466Z,17.00
2018-12-20T07:19:24.092Z,16.40
2018-12-20T07:22:27.782Z,18.53
2018-12-20T07:25:31.212Z,18.10
2018-12-20T07:28:34.702Z,18.00
2018-12-20T07:31:38.196Z,16.13
2018-12-20T07:34:47.894Z,17.63
2018-12-20T07:37:47.151Z,16.60
2018-12-20T07:40:50.608Z,16.40
2018-12-20T07:43:54.167Z,17.20
2018-12-20T07:46:57.947Z,16.93
2018-12-20T07:50:01.480Z,15.35
2018-12-20T07:53:04.957Z,17.57
2018-12-20T07:56:08.425Z,15.63
2018-12-20T07:59:11.895Z,17.30
2018-12-20T08:02:15.490Z,18.87
2018-12-20T08:05:19.009Z,17.20
2018-12-20T08:08:22.570Z,17.20
2018-12-20T08:11:26.061Z,18.43
2018-12-20T08:14:29.510Z,16.50
2018-12-20T08:17:33.083Z,18.50
2018-12-20T08:20:36.706Z,17.60
2018-12-20T08:23:40.233Z,17.30
2018-12-20T08:26:43.801Z,16.23
2018-12-20T08:29:47.418Z,16.83
2018-12-20T08:32:50.923Z,16.20
2018-12-20T08:35:54.461Z,16.37
2018-12-20T08:38:58.051Z,17.53
2018-12-20T08:42:01.692Z,17.77
2018-12-20T08:45:05.678Z,16.60
2018-12-20T08:48:09.167Z,17.30
2018-12-20T08:51:12.650Z,15.67
2018-12-20T08:54:16.568Z,17.47
2018-12-20T08:57:20.026Z,15.43
2018-12-20T09:00:23.531Z,14.10
2018-12-20T09:03:26.977Z,15.73
2018-12-20T09:06:30.489Z,16.27
2018-12-20T09:09:34.529Z,15.60
2018-12-20T09:12:38.042Z,14.90
2018-12-20T09:15:41.517Z,15.63
2018-12-20T09:18:44.995Z,13.50
2018-12-20T09:21:48.557Z,14.97
2018-12-20T09:24:52.111Z,14.33
2018-12-20T09:27:55.630Z,13.73
2018-12-20T09:30:59.466Z,13.67
2018-12-20T09:34:02.982Z,14.03
2018-12-20T09:37:06.570Z,12.20
2018-12-20T09:40:10.194Z,13.03
2018-12-20T09:43:13.705Z,12.28
2018-12-20T09:46:17.286Z,12.87
2018-12-20T09:49:20.876Z,12.50
2018-12-20T09:52:24.462Z,11.13
2018-12-20T09:55:28.046Z,10.37
2018-12-20T09:58:31.626Z,9.20
2018-12-20T10:01:35.182Z,7.97
2018-12-20T10:04:38.710Z,8.00
2018-12-20T10:07:42.486Z,7.70
2018-12-20T10:10:46.083Z,6.70
2018-12-20T10:13:49.602Z,6.77
2018-12-20T10:16:53.521Z,6.53
2018-12-20T10:19:57.078Z,6.80
2018-12-20T10:23:00.553Z,5.78
2018-12-20T10:26:04.123Z,6.17
2018-12-20T10:29:07.647Z,6.10
2018-12-20T10:32:11.201Z,6.30
2018-12-20T10:35:14.700Z,5.70
2018-12-20T10:38:18.314Z,5.80
2018-12-20T10:41:21.831Z,6.30
2018-12-20T10:44:25.358Z,6.80
2018-12-20T10:47:29.787Z,6.20
2018-12-20T10:50:33.460Z,6.63
2018-12-20T10:53:37.046Z,6.10
2018-12-20T10:56:40.722Z,6.60
2018-12-20T10:59:44.293Z,6.93
2018-12-20T11:02:53.151Z,7.60
2018-12-20T11:06:01.544Z,6.50
2018-12-20T11:09:12.684Z,7.05
2018-12-20T11:12:20.467Z,6.70
2018-12-20T11:15:24.212Z,7.13
2018-12-20T11:18:27.842Z,7.53
2018-12-20T11:21:31.390Z,7.40
2018-12-20T11:24:35.938Z,7.20
2018-12-20T11:27:39.705Z,7.20
2018-12-20T11:30:43.242Z,7.07
2018-12-20T11:33:46.797Z,7.67
2018-12-20T11:36:50.300Z,6.80
2018-12-20T11:39:59.395Z,6.50
2018-12-20T11:42:59.680Z,6.40
2018-12-20T11:46:03.296Z,5.93
2018-12-20T11:49:06.953Z,6.70
2018-12-20T11:52:10.441Z,6.97
2018-12-20T11:55:13.970Z,6.80
2018-12-20T11:58:17.487Z,6.73
2018-12-20T12:01:21.111Z,6.80
2018-12-20T12:04:24.698Z,6.17
2018-12-20T12:07:28.282Z,5.90
2018-12-20T12:10:31.931Z,6.28
2018-12-20T12:13:35.585Z,5.93
2018-12-20T12:16:39.224Z,6.00
2018-12-20T12:19:42.869Z,5.40
2018-12-20T12:22:46.385Z,5.70
2018-12-20T12:25:49.984Z,5.40
2018-12-20T12:28:53.749Z,5.83
2018-12-20T12:31:57.215Z,5.70
2018-12-20T12:35:00.690Z,5.40
2018-12-20T12:38:04.265Z,5.42
2018-12-20T12:41:07.875Z,5.07
2018-12-20T12:44:11.370Z,5.30
2018-12-20T12:47:16.972Z,5.67
2018-12-20T12:50:20.490Z,4.20
2018-12-20T12:53:24.148Z,3.80
2018-12-20T12:56:27.643Z,4.60
2018-12-20T12:59:31.120Z,4.00
2018-12-20T13:02:34.614Z,4.03
2018-12-20T13:05:38.149Z,4.00
2018-12-20T13:08:41.702Z,3.77
2018-12-20T13:11:45.226Z,4.10
2018-12-20T13:14:48.762Z,3.90
2018-12-20T13:17:52.255Z,4.07
2018-12-20T13:20:55.826Z,3.43
2018-12-20T13:24:00.009Z,3.80
2018-12-20T13:27:05.640Z,3.50
2018-12-20T13:30:11.501Z,4.10
2018-12-20T13:33:15.095Z,3.40
2018-12-20T13:36:18.545Z,3.60
2018-12-20T13:39:22.081Z,3.60
2018-12-20T13:42:25.666Z,3.50
2018-12-20T13:45:29.949Z,3.80
2018-12-20T13:48:33.487Z,3.53
2018-12-20T13:51:37.016Z,3.90
2018-12-20T13:54:40.632Z,3.47
2018-12-20T13:57:44.310Z,3.87
2018-12-20T14:00:47.855Z,3.80
2018-12-20T14:03:51.329Z,3.53
2018-12-20T14:06:54.860Z,3.73
2018-12-20T14:09:58.359Z,3.90
2018-12-20T14:13:01.940Z,4.50
2018-12-20T14:16:05.558Z,3.90
2018-12-20T14:19:09.150Z,4.00
2018-12-20T14:22:12.754Z,3.97
2018-12-20T14:25:16.242Z,3.80
2018-12-20T14:28:19.742Z,4.50
2018-12-20T14:31:23.254Z,3.20
2018-12-20T14:34:26.690Z,3.73
2018-12-20T14:37:30.362Z,3.20
2018-12-20T14:40:33.898Z,3.40
2018-12-20T14:43:37.464Z,3.80
2018-12-20T14:46:41.025Z,3.70
2018-12-20T14:49:44.540Z,3.53
2018-12-20T14:52:48.111Z,3.40
2018-12-20T14:55:51.687Z,3.50
2018-12-20T14:58:55.251Z,3.60
2018-12-20T15:01:58.843Z,3.00
2018-12-20T15:05:02.380Z,3.33
2018-12-20T15:08:06.013Z,3.77
2018-12-20T15:11:09.501Z,3.60
2018-12-20T15:14:13.205Z,3.05
2018-12-20T15:17:16.795Z,3.23
2018-12-20T15:20:20.313Z,3.67
2018-12-20T15:23:23.803Z,3.37
2018-12-20T15:26:27.313Z,3.00
2018-12-20T15:29:30.844Z,3.33
2018-12-20T15:32:34.344Z,3.15
2018-12-20T15:35:38.021Z,3.57
2018-12-20T15:38:41.698Z,6.80
2018-12-20T15:41:45.253Z,3.87
2018-12-20T15:44:48.874Z,3.20
2018-12-20T15:47:52.345Z,3.70
2018-12-20T15:50:55.883Z,3.67
2018-12-20T15:59:32.990Z,3.43
2018-12-20T16:02:36.723Z,3.07
2018-12-20T16:05:40.279Z,4.70
2018-12-20T16:08:43.848Z,3.00
2018-12-20T16:11:47.585Z,3.12
2018-12-20T16:14:51.072Z,3.03
2018-12-20T16:17:54.633Z,4.00
2018-12-20T16:20:58.265Z,3.00
2018-12-20T16:24:01.760Z,3.40
2018-12-20T16:27:05.369Z,3.05
2018-12-20T16:30:10.996Z,3.80
2018-12-20T16:33:14.734Z,3.20
2018-12-20T16:36:18.304Z,3.25
2018-12-20T16:39:21.835Z,3.17
2018-12-20T16:42:25.425Z,3.87
2018-12-20T16:45:28.960Z,4.37
2018-12-20T16:48:32.473Z,3.70
2018-12-20T16:51:36.149Z,3.80
2018-12-20T16:54:39.749Z,3.20
2018-12-20T16:57:43.286Z,3.20
2018-12-20T17:00:46.922Z,3.27
2018-12-20T17:03:50.477Z,3.50
2018-12-20T17:06:54.254Z,2.93
2018-12-20T17:09:57.865Z,3.50
2018-12-20T17:13:01.479Z,2.90
2018-12-20T17:16:05.202Z,3.05
2018-12-20T17:19:08.712Z,2.95
2018-12-20T17:22:12.251Z,3.30
2018-12-20T17:25:15.907Z,3.40
2018-12-20T17:28:19.433Z,3.47
2018-12-20T17:31:22.927Z,3.93
2018-12-20T17:34:26.429Z,3.60
2018-12-20T17:37:30.729Z,3.80
2018-12-20T17:40:34.219Z,3.13
2018-12-20T17:43:37.722Z,4.25
2018-12-20T17:46:41.269Z,3.80
2018-12-20T17:49:44.832Z,3.57
2018-12-20T17:52:48.519Z,3.50
2018-12-20T17:55:52.013Z,3.90
2018-12-20T17:58:55.504Z,3.60
2018-12-20T18:01:59.059Z,4.28
2018-12-20T18:05:06.845Z,4.43
2018-12-20T18:08:08.084Z,4.00
2018-12-20T18:11:11.602Z,4.37
2018-12-20T18:14:15.067Z,4.75
2018-12-20T18:17:18.634Z,4.40
2018-12-20T18:20:22.098Z,4.80
2018-12-20T18:23:25.696Z,4.30
2018-12-20T18:26:29.383Z,5.03
2018-12-20T18:29:33.014Z,5.10
2018-12-20T18:32:36.583Z,5.60
2018-12-20T18:35:40.159Z,5.60
2018-12-20T18:38:43.749Z,5.53
2018-12-20T18:41:47.254Z,5.80
2018-12-20T18:44:50.859Z,6.57
2018-12-20T18:47:54.373Z,5.63
2018-12-20T18:50:57.841Z,6.70
2018-12-20T18:54:01.332Z,7.00
2018-12-20T18:57:04.853Z,6.20
2018-12-20T19:00:10.240Z,6.67
2018-12-20T19:03:13.725Z,6.05
2018-12-20T19:06:17.337Z,6.87
2018-12-20T19:09:20.849Z,6.27
2018-12-20T19:12:24.258Z,7.30
2018-12-20T19:15:27.718Z,7.60
2018-12-20T19:18:31.154Z,7.13
2018-12-20T19:21:34.715Z,7.97
2018-12-20T19:24:38.325Z,7.20
2018-12-20T19:27:41.869Z,7.80
2018-12-20T19:30:45.359Z,7.83
2018-12-20T19:33:48.854Z,7.60
2018-12-20T19:36:52.364Z,7.10
2018-12-20T19:40:01.197Z,7.60
2018-12-20T19:43:04.984Z,7.63
2018-12-20T19:46:08.475Z,8.50
2018-12-20T19:49:12.029Z,7.33
2018-12-20T19:52:15.581Z,8.40
2018-12-20T19:55:19.042Z,8.73
2018-12-20T19:58:22.539Z,8.77
2018-12-20T20:01:26.110Z,9.08
2018-12-20T20:04:29.642Z,8.90
2018-12-20T20:07:33.144Z,9.03
2018-12-20T20:10:36.713Z,8.90
2018-12-20T20:13:40.212Z,9.53
2018-12-20T20:16:50.772Z,10.55
2018-12-20T20:19:49.233Z,9.30
2018-12-20T20:22:52.908Z,10.23
2018-12-20T20:25:56.528Z,8.90
2018-12-20T20:29:00.003Z,9.33
2018-12-20T20:32:03.662Z,9.30
2018-12-20T20:35:07.698Z,9.53
2018-12-20T20:38:11.242Z,8.63
2018-12-20T20:41:14.848Z,8.00
2018-12-20T20:44:18.429Z,9.10
2018-12-20T20:47:22.182Z,8.30
2018-12-20T20:50:26.110Z,8.40
2018-12-20T20:53:29.674Z,8.10
2018-12-20T20:56:33.218Z,7.55
2018-12-20T20:59:36.785Z,9.67
2018-12-20T21:02:40.308Z,7.55
2018-12-20T21:05:43.864Z,8.10
2018-12-20T21:08:49.186Z,7.80
2018-12-20T21:11:52.655Z,7.80
2018-12-20T21:14:56.254Z,7.60
2018-12-20T21:17:59.895Z,7.60
2018-12-20T21:21:03.362Z,7.60
2018-12-20T21:24:07.071Z,8.05
2018-12-20T21:27:10.773Z,7.80
2018-12-20T21:30:14.308Z,8.57
2018-12-20T21:33:17.980Z,8.53
2018-12-20T21:36:21.514Z,8.70
2018-12-20T21:39:25.063Z,8.67
2018-12-20T21:42:28.707Z,8.17
2018-12-20T21:45:32.383Z,9.00
2018-12-20T21:48:35.897Z,10.00
2018-12-20T21:51:39.409Z,8.27
2018-12-20T21:54:43.042Z,8.63
2018-12-20T21:57:46.578Z,8.17
2018-12-20T22:00:50.149Z,8.23
2018-12-20T22:03:54.426Z,8.93
2018-12-20T22:06:57.923Z,8.90
2018-12-20T22:10:01.628Z,8.10
2018-12-20T22:13:05.137Z,8.15
2018-12-20T22:16:08.794Z,8.57
2018-12-20T22:19:12.444Z,9.17
2018-12-20T22:22:15.981Z,8.83
2018-12-20T22:25:19.893Z,9.58
2018-12-20T22:28:23.714Z,8.70
2018-12-20T22:31:27.357Z,8.43
2018-12-20T22:34:31.470Z,8.73
2018-12-20T22:37:34.994Z,9.33
2018-12-20T22:40:38.583Z,9.83
2018-12-20T22:43:42.077Z,9.27
2018-12-20T22:46:45.727Z,9.43
2018-12-20T22:49:49.387Z,9.87
2018-12-20T22:52:52.895Z,10.57
2018-12-20T22:55:56.456Z,9.13
2018-12-20T22:58:59.997Z,10.55
2018-12-20T23:02:03.736Z,10.65
2018-12-20T23:05:07.436Z,9.97
2018-12-20T23:08:10.975Z,10.13
2018-12-20T23:11:14.528Z,9.58
2018-12-20T23:14:18.223Z,9.37
2018-12-20T23:17:22.458Z,9.73
2018-12-20T23:20:26.176Z,9.70
2018-12-20T23:23:29.688Z,8.87
2018-12-20T23:26:33.226Z,9.60
2018-12-20T23:29:36.788Z,9.73
2018-12-20T23:32:40.272Z,10.13
2018-12-20T23:35:43.901Z,9.10
2018-12-20T23:38:47.451Z,9.47
2018-12-20T23:41:50.938Z,8.90
2018-12-20T23:44:54.871Z,8.73
2018-12-20T23:47:58.361Z,9.33
2018-12-20T23:51:02.807Z,9.35
2018-12-20T23:54:06.352Z,9.23
2018-12-20T23:57:09.956Z,8.70
